sensor_id;sensor_type;location;lat;lon;timestamp;P1;durP1;ratioP1;P2;durP2;ratioP2
4206;SDS011;2117;47.972;7.830;2023-07-28T01:02:18;4.37;;;2.77;;
4206;SDS011;2117;47.972;7.830;2023-07-28T01:04:45;4.87;;;3.73;;
4206;SDS011;2117;47.972;7.830;2023-07-28T01:07:16;8.80;;;3.03;;
4206;SDS011;2117;47.972;7.830;2023-07-28T01:10:08;5.87;;;3.37;;
4206;SDS011;2117;47.972;7.830;2023-07-28T01:12:38;4.67;;;3.17;;
4206;SDS011;2117;47.972;7.830;2023-07-28T01:15:03;8.87;;;3.40;;
4206;SDS011;2117;47.972;7.830;2023-07-28T01:17:29;4.10;;;3.60;;
4206;SDS011;2117;47.972;7.830;2023-07-28T01:19:55;5.03;;;3.23;;
4206;SDS011;2117;47.972;7.830;2023-07-28T01:27:58;5.40;;;3.13;;
4206;SDS011;2117;47.972;7.830;2023-07-28T01:30:25;4.80;;;3.30;;
4206;SDS011;2117;47.972;7.830;2023-07-28T01:32:55;3.40;;;2.60;;
4206;SDS011;2117;47.972;7.830;2023-07-28T01:35:22;5.50;;;3.10;;
4206;SDS011;2117;47.972;7.830;2023-07-28T01:37:47;3.50;;;2.70;;
4206;SDS011;2117;47.972;7.830;2023-07-28T01:40:16;4.30;;;3.20;;
4206;SDS011;2117;47.972;7.830;2023-07-28T01:42:42;3.70;;;3.23;;
4206;SDS011;2117;47.972;7.830;2023-07-28T01:45:08;4.67;;;3.30;;
4206;SDS011;2117;47.972;7.830;2023-07-28T01:47:34;5.80;;;3.00;;
4206;SDS011;2117;47.972;7.830;2023-07-28T01:49:59;4.97;;;3.73;;
4206;SDS011;2117;47.972;7.830;2023-07-28T01:52:25;9.23;;;3.60;;
4206;SDS011;2117;47.972;7.830;2023-07-28T01:54:51;6.80;;;3.23;;
4206;SDS011;2117;47.972;7.830;2023-07-28T01:57:16;5.17;;;3.70;;
4206;SDS011;2117;47.972;7.830;2023-07-28T01:59:42;6.23;;;3.40;;
4206;SDS011;2117;47.972;7.830;2023-07-28T02:02:08;4.70;;;3.83;;
4206;SDS011;2117;47.972;7.830;2023-07-28T02:04:34;4.90;;;3.77;;
4206;SDS011;2117;47.972;7.830;2023-07-28T02:06:59;5.70;;;3.50;;
4206;SDS011;2117;47.972;7.830;2023-07-28T02:09:25;9.23;;;3.83;;
4206;SDS011;2117;47.972;7.830;2023-07-28T02:11:51;5.43;;;3.43;;
4206;SDS011;2117;47.972;7.830;2023-07-28T02:14:17;4.37;;;3.63;;
4206;SDS011;2117;47.972;7.830;2023-07-28T02:16:43;3.57;;;2.93;;
4206;SDS011;2117;47.972;7.830;2023-07-28T02:19:09;5.80;;;3.40;;
4206;SDS011;2117;47.972;7.830;2023-07-28T02:21:34;7.30;;;3.37;;
4206;SDS011;2117;47.972;7.830;2023-07-28T02:24:00;5.63;;;3.47;;
4206;SDS011;2117;47.972;7.830;2023-07-28T02:26:25;5.40;;;3.43;;
4206;SDS011;2117;47.972;7.830;2023-07-28T02:28:51;4.00;;;3.60;;
4206;SDS011;2117;47.972;7.830;2023-07-28T02:31:16;5.93;;;3.17;;
4206;SDS011;2117;47.972;7.830;2023-07-28T02:33:42;3.90;;;3.43;;
4206;SDS011;2117;47.972;7.830;2023-07-28T02:36:07;4.80;;;4.20;;
4206;SDS011;2117;47.972;7.830;2023-07-28T02:38:33;4.90;;;3.63;;
4206;SDS011;2117;47.972;7.830;2023-07-28T02:40:59;12.77;;;3.40;;
4206;SDS011;2117;47.972;7.830;2023-07-28T02:43:24;5.67;;;3.50;;
4206;SDS011;2117;47.972;7.830;2023-07-28T02:45:54;5.73;;;2.63;;
4206;SDS011;2117;47.972;7.830;2023-07-28T02:48:20;5.23;;;3.40;;
4206;SDS011;2117;47.972;7.830;2023-07-28T02:50:49;5.13;;;3.27;;
4206;SDS011;2117;47.972;7.830;2023-07-28T02:53:16;4.27;;;3.20;;
4206;SDS011;2117;47.972;7.830;2023-07-28T02:55:45;3.90;;;3.33;;
4206;SDS011;2117;47.972;7.830;2023-07-28T02:58:12;6.17;;;3.77;;
4206;SDS011;2117;47.972;7.830;2023-07-28T03:00:41;6.50;;;2.97;;
4206;SDS011;2117;47.972;7.830;2023-07-28T03:03:09;5.43;;;3.67;;
4206;SDS011;2117;47.972;7.830;2023-07-28T03:05:36;7.17;;;3.43;;
4206;SDS011;2117;47.972;7.830;2023-07-28T03:08:02;4.90;;;3.40;;
4206;SDS011;2117;47.972;7.830;2023-07-28T03:10:27;5.70;;;2.83;;
4206;SDS011;2117;47.972;7.830;2023-07-28T03:12:53;3.50;;;2.77;;
4206;SDS011;2117;47.972;7.830;2023-07-28T03:15:19;5.63;;;3.43;;
4206;SDS011;2117;47.972;7.830;2023-07-28T03:17:46;5.37;;;3.07;;
4206;SDS011;2117;47.972;7.830;2023-07-28T03:20:12;3.57;;;3.23;;
4206;SDS011;2117;47.972;7.830;2023-07-28T03:22:38;6.47;;;3.20;;
4206;SDS011;2117;47.972;7.830;2023-07-28T03:25:04;3.53;;;3.10;;
4206;SDS011;2117;47.972;7.830;2023-07-28T03:27:29;7.83;;;3.40;;
4206;SDS011;2117;47.972;7.830;2023-07-28T03:29:55;4.10;;;3.10;;
4206;SDS011;2117;47.972;7.830;2023-07-28T03:32:20;5.63;;;2.90;;
4206;SDS011;2117;47.972;7.830;2023-07-28T03:34:46;4.60;;;2.90;;
4206;SDS011;2117;47.972;7.830;2023-07-28T03:37:12;4.57;;;3.30;;
4206;SDS011;2117;47.972;7.830;2023-07-28T03:39:37;4.97;;;2.93;;
4206;SDS011;2117;47.972;7.830;2023-07-28T03:42:03;3.80;;;2.90;;
4206;SDS011;2117;47.972;7.830;2023-07-28T03:44:29;5.80;;;3.23;;
4206;SDS011;2117;47.972;7.830;2023-07-28T03:46:55;7.43;;;2.87;;
4206;SDS011;2117;47.972;7.830;2023-07-28T03:49:21;4.90;;;2.83;;
4206;SDS011;2117;47.972;7.830;2023-07-28T03:51:46;12.63;;;3.70;;
4206;SDS011;2117;47.972;7.830;2023-07-28T03:54:12;4.37;;;3.33;;
4206;SDS011;2117;47.972;7.830;2023-07-28T03:56:37;3.87;;;2.80;;
4206;SDS011;2117;47.972;7.830;2023-07-28T03:59:03;5.27;;;2.80;;
4206;SDS011;2117;47.972;7.830;2023-07-28T04:01:29;4.57;;;3.30;;
4206;SDS011;2117;47.972;7.830;2023-07-28T04:03:54;4.40;;;3.50;;
4206;SDS011;2117;47.972;7.830;2023-07-28T04:06:34;14.97;;;3.40;;
4206;SDS011;2117;47.972;7.830;2023-07-28T04:09:08;13.70;;;4.13;;
4206;SDS011;2117;47.972;7.830;2023-07-28T04:11:33;3.30;;;2.90;;
4206;SDS011;2117;47.972;7.830;2023-07-28T04:13:59;3.60;;;2.97;;
4206;SDS011;2117;47.972;7.830;2023-07-28T04:16:25;3.97;;;3.57;;
4206;SDS011;2117;47.972;7.830;2023-07-28T04:18:50;3.00;;;2.57;;
4206;SDS011;2117;47.972;7.830;2023-07-28T04:21:16;5.57;;;3.03;;
4206;SDS011;2117;47.972;7.830;2023-07-28T04:23:41;5.10;;;3.03;;
4206;SDS011;2117;47.972;7.830;2023-07-28T04:26:08;3.67;;;2.83;;
4206;SDS011;2117;47.972;7.830;2023-07-28T04:28:34;7.50;;;2.83;;
4206;SDS011;2117;47.972;7.830;2023-07-28T04:30:59;3.83;;;2.53;;
4206;SDS011;2117;47.972;7.830;2023-07-28T04:33:25;5.13;;;2.70;;
4206;SDS011;2117;47.972;7.830;2023-07-28T04:35:50;4.73;;;3.10;;
4206;SDS011;2117;47.972;7.830;2023-07-28T04:38:16;3.53;;;2.70;;
4206;SDS011;2117;47.972;7.830;2023-07-28T04:40:43;6.33;;;2.70;;
4206;SDS011;2117;47.972;7.830;2023-07-28T04:43:09;6.00;;;2.73;;
4206;SDS011;2117;47.972;7.830;2023-07-28T04:45:35;8.13;;;3.23;;
4206;SDS011;2117;47.972;7.830;2023-07-28T04:48:00;3.57;;;2.37;;
4206;SDS011;2117;47.972;7.830;2023-07-28T04:50:26;3.83;;;2.50;;
4206;SDS011;2117;47.972;7.830;2023-07-28T04:52:52;3.10;;;2.60;;
4206;SDS011;2117;47.972;7.830;2023-07-28T04:55:17;4.60;;;3.40;;
4206;SDS011;2117;47.972;7.830;2023-07-28T04:57:43;4.40;;;2.50;;
4206;SDS011;2117;47.972;7.830;2023-07-28T05:00:08;4.40;;;2.90;;
4206;SDS011;2117;47.972;7.830;2023-07-28T05:02:34;4.17;;;2.80;;
4206;SDS011;2117;47.972;7.830;2023-07-28T05:05:00;4.87;;;2.43;;
4206;SDS011;2117;47.972;7.830;2023-07-28T05:07:25;4.03;;;2.33;;
4206;SDS011;2117;47.972;7.830;2023-07-28T05:09:51;6.60;;;3.60;;
4206;SDS011;2117;47.972;7.830;2023-07-28T05:12:17;3.10;;;2.33;;
4206;SDS011;2117;47.972;7.830;2023-07-28T05:14:42;7.40;;;3.03;;
4206;SDS011;2117;47.972;7.830;2023-07-28T05:17:08;3.10;;;2.43;;
4206;SDS011;2117;47.972;7.830;2023-07-28T05:19:34;3.83;;;2.40;;
4206;SDS011;2117;47.972;7.830;2023-07-28T05:22:00;6.23;;;2.80;;
4206;SDS011;2117;47.972;7.830;2023-07-28T05:24:25;3.27;;;2.30;;
4206;SDS011;2117;47.972;7.830;2023-07-28T05:26:51;4.60;;;2.60;;
4206;SDS011;2117;47.972;7.830;2023-07-28T05:29:16;3.00;;;2.07;;
4206;SDS011;2117;47.972;7.830;2023-07-28T05:31:42;3.80;;;2.47;;
4206;SDS011;2117;47.972;7.830;2023-07-28T05:34:07;3.67;;;1.93;;
4206;SDS011;2117;47.972;7.830;2023-07-28T05:36:33;3.70;;;2.43;;
4206;SDS011;2117;47.972;7.830;2023-07-28T05:38:58;3.50;;;2.33;;
4206;SDS011;2117;47.972;7.830;2023-07-28T05:41:24;4.70;;;2.80;;
4206;SDS011;2117;47.972;7.830;2023-07-28T05:43:50;4.50;;;2.43;;
4206;SDS011;2117;47.972;7.830;2023-07-28T05:46:15;3.23;;;2.70;;
4206;SDS011;2117;47.972;7.830;2023-07-28T05:48:41;4.90;;;2.30;;
4206;SDS011;2117;47.972;7.830;2023-07-28T05:51:07;4.67;;;2.80;;
4206;SDS011;2117;47.972;7.830;2023-07-28T05:53:32;3.00;;;2.20;;
4206;SDS011;2117;47.972;7.830;2023-07-28T05:55:58;5.27;;;2.80;;
4206;SDS011;2117;47.972;7.830;2023-07-28T05:58:23;4.33;;;2.83;;
4206;SDS011;2117;47.972;7.830;2023-07-28T06:00:49;2.80;;;2.20;;
4206;SDS011;2117;47.972;7.830;2023-07-28T06:03:15;3.03;;;2.50;;
4206;SDS011;2117;47.972;7.830;2023-07-28T06:05:41;4.83;;;2.67;;
4206;SDS011;2117;47.972;7.830;2023-07-28T06:08:07;5.97;;;2.60;;
4206;SDS011;2117;47.972;7.830;2023-07-28T06:10:33;4.53;;;2.43;;
4206;SDS011;2117;47.972;7.830;2023-07-28T06:12:59;5.90;;;2.20;;
4206;SDS011;2117;47.972;7.830;2023-07-28T06:15:25;3.70;;;2.90;;
4206;SDS011;2117;47.972;7.830;2023-07-28T06:17:50;6.73;;;2.40;;
4206;SDS011;2117;47.972;7.830;2023-07-28T06:20:16;4.37;;;2.63;;
4206;SDS011;2117;47.972;7.830;2023-07-28T06:22:41;3.37;;;2.63;;
4206;SDS011;2117;47.972;7.830;2023-07-28T06:25:08;5.43;;;2.87;;
4206;SDS011;2117;47.972;7.830;2023-07-28T06:27:33;5.03;;;2.50;;
4206;SDS011;2117;47.972;7.830;2023-07-28T06:29:59;3.13;;;2.40;;
4206;SDS011;2117;47.972;7.830;2023-07-28T06:32:25;5.43;;;2.40;;
4206;SDS011;2117;47.972;7.830;2023-07-28T06:34:52;3.80;;;3.10;;
4206;SDS011;2117;47.972;7.830;2023-07-28T06:37:18;3.33;;;2.70;;
4206;SDS011;2117;47.972;7.830;2023-07-28T06:39:44;3.23;;;2.53;;
4206;SDS011;2117;47.972;7.830;2023-07-28T06:42:10;4.10;;;2.50;;
4206;SDS011;2117;47.972;7.830;2023-07-28T06:44:36;5.13;;;2.40;;
4206;SDS011;2117;47.972;7.830;2023-07-28T06:47:02;3.83;;;2.57;;
4206;SDS011;2117;47.972;7.830;2023-07-28T06:49:28;6.00;;;3.00;;
4206;SDS011;2117;47.972;7.830;2023-07-28T06:51:53;6.13;;;2.90;;
4206;SDS011;2117;47.972;7.830;2023-07-28T06:54:19;3.90;;;3.17;;
4206;SDS011;2117;47.972;7.830;2023-07-28T06:56:44;14.13;;;3.40;;
4206;SDS011;2117;47.972;7.830;2023-07-28T06:59:10;3.73;;;2.70;;
4206;SDS011;2117;47.972;7.830;2023-07-28T07:01:36;4.07;;;2.97;;
4206;SDS011;2117;47.972;7.830;2023-07-28T07:04:02;12.53;;;3.40;;
4206;SDS011;2117;47.972;7.830;2023-07-28T07:06:29;4.57;;;3.17;;
4206;SDS011;2117;47.972;7.830;2023-07-28T07:08:55;5.13;;;2.93;;
4206;SDS011;2117;47.972;7.830;2023-07-28T07:11:20;4.30;;;3.20;;
4206;SDS011;2117;47.972;7.830;2023-07-28T07:13:46;5.10;;;2.97;;
4206;SDS011;2117;47.972;7.830;2023-07-28T07:16:15;4.70;;;3.00;;
4206;SDS011;2117;47.972;7.830;2023-07-28T07:18:41;5.13;;;3.53;;
4206;SDS011;2117;47.972;7.830;2023-07-28T07:21:10;3.70;;;2.67;;
4206;SDS011;2117;47.972;7.830;2023-07-28T07:23:36;13.23;;;4.17;;
4206;SDS011;2117;47.972;7.830;2023-07-28T07:26:02;7.10;;;3.20;;
4206;SDS011;2117;47.972;7.830;2023-07-28T07:28:28;4.60;;;3.10;;
4206;SDS011;2117;47.972;7.830;2023-07-28T07:30:54;4.37;;;3.50;;
4206;SDS011;2117;47.972;7.830;2023-07-28T07:33:20;6.13;;;4.43;;
4206;SDS011;2117;47.972;7.830;2023-07-28T07:35:45;4.63;;;3.10;;
4206;SDS011;2117;47.972;7.830;2023-07-28T07:38:11;5.57;;;3.20;;
4206;SDS011;2117;47.972;7.830;2023-07-28T07:40:37;4.10;;;2.83;;
4206;SDS011;2117;47.972;7.830;2023-07-28T07:43:03;5.90;;;4.00;;
4206;SDS011;2117;47.972;7.830;2023-07-28T07:45:32;4.23;;;3.10;;
4206;SDS011;2117;47.972;7.830;2023-07-28T07:47:58;4.40;;;2.70;;
4206;SDS011;2117;47.972;7.830;2023-07-28T07:50:24;4.67;;;3.10;;
4206;SDS011;2117;47.972;7.830;2023-07-28T07:52:49;10.00;;;3.30;;
4206;SDS011;2117;47.972;7.830;2023-07-28T07:55:15;3.83;;;2.80;;
4206;SDS011;2117;47.972;7.830;2023-07-28T07:57:41;6.67;;;3.00;;
4206;SDS011;2117;47.972;7.830;2023-07-28T08:00:07;4.13;;;3.20;;
4206;SDS011;2117;47.972;7.830;2023-07-28T08:02:33;10.80;;;3.93;;
4206;SDS011;2117;47.972;7.830;2023-07-28T08:04:59;4.50;;;3.37;;
4206;SDS011;2117;47.972;7.830;2023-07-28T08:07:25;7.70;;;3.07;;
4206;SDS011;2117;47.972;7.830;2023-07-28T08:09:51;4.27;;;3.03;;
4206;SDS011;2117;47.972;7.830;2023-07-28T08:12:17;3.40;;;2.50;;
4206;SDS011;2117;47.972;7.830;2023-07-28T08:14:42;4.87;;;2.83;;
4206;SDS011;2117;47.972;7.830;2023-07-28T08:17:09;6.17;;;3.50;;
4206;SDS011;2117;47.972;7.830;2023-07-28T08:19:34;5.80;;;3.53;;
4206;SDS011;2117;47.972;7.830;2023-07-28T08:22:01;4.13;;;3.20;;
4206;SDS011;2117;47.972;7.830;2023-07-28T08:24:28;4.60;;;2.93;;
4206;SDS011;2117;47.972;7.830;2023-07-28T08:26:54;4.10;;;3.17;;
4206;SDS011;2117;47.972;7.830;2023-07-28T08:29:19;4.03;;;2.80;;
4206;SDS011;2117;47.972;7.830;2023-07-28T08:31:45;4.83;;;2.97;;
4206;SDS011;2117;47.972;7.830;2023-07-28T08:34:10;6.23;;;3.27;;
4206;SDS011;2117;47.972;7.830;2023-07-28T08:36:36;6.70;;;3.00;;
4206;SDS011;2117;47.972;7.830;2023-07-28T08:39:02;3.63;;;2.63;;
4206;SDS011;2117;47.972;7.830;2023-07-28T08:41:28;3.87;;;2.80;;
4206;SDS011;2117;47.972;7.830;2023-07-28T08:43:54;3.80;;;2.97;;
4206;SDS011;2117;47.972;7.830;2023-07-28T08:46:20;3.00;;;2.20;;
4206;SDS011;2117;47.972;7.830;2023-07-28T08:48:45;5.73;;;3.00;;
4206;SDS011;2117;47.972;7.830;2023-07-28T08:51:12;5.87;;;3.10;;
4206;SDS011;2117;47.972;7.830;2023-07-28T08:53:38;4.07;;;2.80;;
4206;SDS011;2117;47.972;7.830;2023-07-28T08:56:04;5.13;;;3.13;;
4206;SDS011;2117;47.972;7.830;2023-07-28T08:58:30;4.73;;;3.10;;
4206;SDS011;2117;47.972;7.830;2023-07-28T09:00:55;5.20;;;3.20;;
4206;SDS011;2117;47.972;7.830;2023-07-28T09:03:25;5.60;;;3.17;;
4206;SDS011;2117;47.972;7.830;2023-07-28T09:05:53;4.40;;;2.47;;
4206;SDS011;2117;47.972;7.830;2023-07-28T09:08:26;5.33;;;2.80;;
4206;SDS011;2117;47.972;7.830;2023-07-28T09:10:52;7.27;;;3.03;;
4206;SDS011;2117;47.972;7.830;2023-07-28T09:13:19;6.40;;;2.73;;
4206;SDS011;2117;47.972;7.830;2023-07-28T09:15:45;6.80;;;3.60;;
4206;SDS011;2117;47.972;7.830;2023-07-28T09:18:12;4.47;;;2.70;;
4206;SDS011;2117;47.972;7.830;2023-07-28T09:20:40;4.63;;;2.33;;
4206;SDS011;2117;47.972;7.830;2023-07-28T09:23:07;4.03;;;2.57;;
4206;SDS011;2117;47.972;7.830;2023-07-28T09:25:34;6.00;;;3.30;;
4206;SDS011;2117;47.972;7.830;2023-07-28T09:28:01;4.17;;;3.43;;
4206;SDS011;2117;47.972;7.830;2023-07-28T09:30:27;3.90;;;2.80;;
4206;SDS011;2117;47.972;7.830;2023-07-28T09:33:12;4.90;;;3.40;;
4206;SDS011;2117;47.972;7.830;2023-07-28T09:35:48;3.90;;;2.30;;
4206;SDS011;2117;47.972;7.830;2023-07-28T09:38:14;4.90;;;3.80;;
4206;SDS011;2117;47.972;7.830;2023-07-28T09:40:40;3.90;;;2.57;;
4206;SDS011;2117;47.972;7.830;2023-07-28T09:43:06;4.57;;;3.07;;
4206;SDS011;2117;47.972;7.830;2023-07-28T09:45:32;8.43;;;3.30;;
4206;SDS011;2117;47.972;7.830;2023-07-28T09:48:01;6.17;;;2.97;;
4206;SDS011;2117;47.972;7.830;2023-07-28T09:50:32;5.13;;;2.70;;
4206;SDS011;2117;47.972;7.830;2023-07-28T09:53:01;4.60;;;3.20;;
4206;SDS011;2117;47.972;7.830;2023-07-28T09:55:28;4.23;;;3.27;;
4206;SDS011;2117;47.972;7.830;2023-07-28T09:57:54;4.90;;;2.87;;
4206;SDS011;2117;47.972;7.830;2023-07-28T10:00:21;4.03;;;3.00;;
4206;SDS011;2117;47.972;7.830;2023-07-28T10:02:48;7.20;;;3.50;;
4206;SDS011;2117;47.972;7.830;2023-07-28T10:05:15;9.50;;;3.07;;
4206;SDS011;2117;47.972;7.830;2023-07-28T10:07:41;5.87;;;3.23;;
4206;SDS011;2117;47.972;7.830;2023-07-28T10:10:09;7.10;;;3.20;;
4206;SDS011;2117;47.972;7.830;2023-07-28T10:12:50;6.77;;;3.20;;
4206;SDS011;2117;47.972;7.830;2023-07-28T10:15:17;4.30;;;3.30;;
4206;SDS011;2117;47.972;7.830;2023-07-28T10:17:47;4.03;;;2.70;;
4206;SDS011;2117;47.972;7.830;2023-07-28T10:20:34;3.73;;;2.63;;
4206;SDS011;2117;47.972;7.830;2023-07-28T10:23:07;4.90;;;3.30;;
4206;SDS011;2117;47.972;7.830;2023-07-28T10:25:33;4.67;;;2.50;;
4206;SDS011;2117;47.972;7.830;2023-07-28T10:28:03;5.33;;;3.30;;
4206;SDS011;2117;47.972;7.830;2023-07-28T10:30:34;4.20;;;2.80;;
4206;SDS011;2117;47.972;7.830;2023-07-28T10:33:01;5.20;;;3.30;;
4206;SDS011;2117;47.972;7.830;2023-07-28T10:35:28;5.03;;;3.20;;
4206;SDS011;2117;47.972;7.830;2023-07-28T10:37:56;5.10;;;2.90;;
4206;SDS011;2117;47.972;7.830;2023-07-28T10:40:34;5.03;;;3.73;;
4206;SDS011;2117;47.972;7.830;2023-07-28T10:43:01;7.67;;;3.53;;
4206;SDS011;2117;47.972;7.830;2023-07-28T10:45:29;3.90;;;3.50;;
4206;SDS011;2117;47.972;7.830;2023-07-28T10:47:56;5.17;;;3.63;;
4206;SDS011;2117;47.972;7.830;2023-07-28T10:50:26;5.67;;;3.63;;
4206;SDS011;2117;47.972;7.830;2023-07-28T10:52:53;11.10;;;4.23;;
4206;SDS011;2117;47.972;7.830;2023-07-28T10:55:20;3.73;;;3.33;;
4206;SDS011;2117;47.972;7.830;2023-07-28T10:57:48;7.20;;;3.43;;
4206;SDS011;2117;47.972;7.830;2023-07-28T11:00:15;4.30;;;3.67;;
4206;SDS011;2117;47.972;7.830;2023-07-28T11:02:47;6.00;;;3.50;;
4206;SDS011;2117;47.972;7.830;2023-07-28T11:05:19;4.20;;;3.80;;
4206;SDS011;2117;47.972;7.830;2023-07-28T11:07:48;7.13;;;3.83;;
4206;SDS011;2117;47.972;7.830;2023-07-28T11:10:14;4.57;;;3.37;;
4206;SDS011;2117;47.972;7.830;2023-07-28T11:12:41;3.37;;;3.00;;
4206;SDS011;2117;47.972;7.830;2023-07-28T11:15:08;5.90;;;3.53;;
4206;SDS011;2117;47.972;7.830;2023-07-28T11:17:41;4.00;;;3.60;;
4206;SDS011;2117;47.972;7.830;2023-07-28T11:22:46;8.97;;;3.90;;
4206;SDS011;2117;47.972;7.830;2023-07-28T11:25:21;5.90;;;3.63;;
4206;SDS011;2117;47.972;7.830;2023-07-28T11:27:48;4.87;;;3.50;;
4206;SDS011;2117;47.972;7.830;2023-07-28T11:30:15;5.77;;;4.50;;
4206;SDS011;2117;47.972;7.830;2023-07-28T11:32:42;5.17;;;4.23;;
4206;SDS011;2117;47.972;7.830;2023-07-28T11:35:10;4.00;;;3.43;;
4206;SDS011;2117;47.972;7.830;2023-07-28T11:37:40;4.20;;;3.80;;
4206;SDS011;2117;47.972;7.830;2023-07-28T11:40:10;5.20;;;3.53;;
4206;SDS011;2117;47.972;7.830;2023-07-28T11:45:06;5.70;;;3.53;;
4206;SDS011;2117;47.972;7.830;2023-07-28T11:47:33;7.93;;;3.83;;
4206;SDS011;2117;47.972;7.830;2023-07-28T11:49:59;5.13;;;4.27;;
4206;SDS011;2117;47.972;7.830;2023-07-28T11:52:30;4.63;;;3.70;;
4206;SDS011;2117;47.972;7.830;2023-07-28T11:54:56;6.23;;;4.13;;
4206;SDS011;2117;47.972;7.830;2023-07-28T11:57:25;5.10;;;3.80;;
4206;SDS011;2117;47.972;7.830;2023-07-28T11:59:51;5.80;;;4.17;;
4206;SDS011;2117;47.972;7.830;2023-07-28T12:02:24;5.40;;;3.77;;
4206;SDS011;2117;47.972;7.830;2023-07-28T12:04:53;6.10;;;4.70;;
4206;SDS011;2117;47.972;7.830;2023-07-28T12:07:19;5.37;;;4.17;;
4206;SDS011;2117;47.972;7.830;2023-07-28T12:09:52;9.33;;;4.30;;
4206;SDS011;2117;47.972;7.830;2023-07-28T12:12:20;6.10;;;4.57;;
4206;SDS011;2117;47.972;7.830;2023-07-28T12:14:48;9.00;;;4.80;;
4206;SDS011;2117;47.972;7.830;2023-07-28T12:17:20;7.27;;;4.27;;
4206;SDS011;2117;47.972;7.830;2023-07-28T12:20:03;7.80;;;5.40;;
4206;SDS011;2117;47.972;7.830;2023-07-28T12:22:39;9.30;;;5.13;;
4206;SDS011;2117;47.972;7.830;2023-07-28T12:25:06;7.73;;;4.37;;
4206;SDS011;2117;47.972;7.830;2023-07-28T12:27:32;9.90;;;4.37;;
4206;SDS011;2117;47.972;7.830;2023-07-28T12:29:58;5.80;;;4.40;;
4206;SDS011;2117;47.972;7.830;2023-07-28T12:32:24;5.73;;;4.97;;
4206;SDS011;2117;47.972;7.830;2023-07-28T12:34:50;10.93;;;4.43;;
4206;SDS011;2117;47.972;7.830;2023-07-28T12:37:16;5.20;;;4.00;;
4206;SDS011;2117;47.972;7.830;2023-07-28T12:39:42;6.50;;;4.50;;
4206;SDS011;2117;47.972;7.830;2023-07-28T12:42:09;7.20;;;4.80;;
4206;SDS011;2117;47.972;7.830;2023-07-28T12:44:36;5.20;;;4.40;;
4206;SDS011;2117;47.972;7.830;2023-07-28T12:47:02;6.40;;;4.07;;
4206;SDS011;2117;47.972;7.830;2023-07-28T12:49:29;7.10;;;4.60;;
4206;SDS011;2117;47.972;7.830;2023-07-28T12:51:55;7.30;;;4.93;;
4206;SDS011;2117;47.972;7.830;2023-07-28T12:54:22;5.43;;;4.27;;
4206;SDS011;2117;47.972;7.830;2023-07-28T12:56:48;5.57;;;4.50;;
4206;SDS011;2117;47.972;7.830;2023-07-28T12:59:14;5.67;;;4.47;;
4206;SDS011;2117;47.972;7.830;2023-07-28T13:01:40;5.00;;;3.93;;
4206;SDS011;2117;47.972;7.830;2023-07-28T13:04:05;4.03;;;3.30;;
4206;SDS011;2117;47.972;7.830;2023-07-28T13:06:31;5.73;;;3.43;;
4206;SDS011;2117;47.972;7.830;2023-07-28T13:08:57;5.43;;;3.90;;
4206;SDS011;2117;47.972;7.830;2023-07-28T13:11:23;6.03;;;5.40;;
4206;SDS011;2117;47.972;7.830;2023-07-28T13:13:48;4.53;;;3.13;;
4206;SDS011;2117;47.972;7.830;2023-07-28T13:16:14;4.03;;;2.97;;
4206;SDS011;2117;47.972;7.830;2023-07-28T13:18:39;4.40;;;2.87;;
4206;SDS011;2117;47.972;7.830;2023-07-28T13:21:07;4.37;;;2.23;;
4206;SDS011;2117;47.972;7.830;2023-07-28T13:23:32;4.87;;;2.50;;
4206;SDS011;2117;47.972;7.830;2023-07-28T13:25:58;3.90;;;1.70;;
4206;SDS011;2117;47.972;7.830;2023-07-28T13:28:23;2.40;;;1.53;;
4206;SDS011;2117;47.972;7.830;2023-07-28T13:30:50;2.30;;;1.43;;
4206;SDS011;2117;47.972;7.830;2023-07-28T13:33:16;3.37;;;1.47;;
4206;SDS011;2117;47.972;7.830;2023-07-28T13:35:42;3.93;;;1.40;;
4206;SDS011;2117;47.972;7.830;2023-07-28T13:38:07;2.33;;;1.60;;
4206;SDS011;2117;47.972;7.830;2023-07-28T13:40:34;3.03;;;1.53;;
4206;SDS011;2117;47.972;7.830;2023-07-28T13:43:00;3.90;;;2.70;;
4206;SDS011;2117;47.972;7.830;2023-07-28T13:45:26;5.53;;;3.00;;
4206;SDS011;2117;47.972;7.830;2023-07-28T13:47:52;4.60;;;3.77;;
4206;SDS011;2117;47.972;7.830;2023-07-28T13:50:18;3.30;;;2.57;;
4206;SDS011;2117;47.972;7.830;2023-07-28T13:52:43;3.93;;;2.73;;
4206;SDS011;2117;47.972;7.830;2023-07-28T13:55:09;4.40;;;2.70;;
4206;SDS011;2117;47.972;7.830;2023-07-28T13:57:34;4.80;;;2.80;;
4206;SDS011;2117;47.972;7.830;2023-07-28T14:00:00;3.13;;;2.20;;
4206;SDS011;2117;47.972;7.830;2023-07-28T14:02:27;3.80;;;2.87;;
4206;SDS011;2117;47.972;7.830;2023-07-28T14:04:53;5.63;;;2.93;;
4206;SDS011;2117;47.972;7.830;2023-07-28T14:07:18;5.47;;;2.50;;
4206;SDS011;2117;47.972;7.830;2023-07-28T14:09:44;4.23;;;3.03;;
4206;SDS011;2117;47.972;7.830;2023-07-28T14:12:10;4.40;;;2.90;;
4206;SDS011;2117;47.972;7.830;2023-07-28T14:14:36;4.90;;;3.13;;
4206;SDS011;2117;47.972;7.830;2023-07-28T14:17:01;3.70;;;2.50;;
4206;SDS011;2117;47.972;7.830;2023-07-28T14:19:27;4.97;;;2.63;;
4206;SDS011;2117;47.972;7.830;2023-07-28T14:21:53;2.67;;;1.97;;
4206;SDS011;2117;47.972;7.830;2023-07-28T14:24:19;3.20;;;2.23;;
4206;SDS011;2117;47.972;7.830;2023-07-28T14:26:45;3.60;;;2.57;;
4206;SDS011;2117;47.972;7.830;2023-07-28T14:29:10;6.27;;;2.73;;
4206;SDS011;2117;47.972;7.830;2023-07-28T14:31:36;4.37;;;2.07;;
4206;SDS011;2117;47.972;7.830;2023-07-28T14:34:01;3.67;;;2.70;;
4206;SDS011;2117;47.972;7.830;2023-07-28T14:36:27;3.20;;;2.30;;
4206;SDS011;2117;47.972;7.830;2023-07-28T14:38:53;4.07;;;2.20;;
4206;SDS011;2117;47.972;7.830;2023-07-28T14:41:18;3.63;;;2.40;;
4206;SDS011;2117;47.972;7.830;2023-07-28T14:43:44;9.43;;;3.40;;
4206;SDS011;2117;47.972;7.830;2023-07-28T14:46:10;3.03;;;2.13;;
4206;SDS011;2117;47.972;7.830;2023-07-28T14:48:35;4.67;;;2.30;;
4206;SDS011;2117;47.972;7.830;2023-07-28T14:51:01;7.20;;;2.30;;
4206;SDS011;2117;47.972;7.830;2023-07-28T14:53:27;5.23;;;2.60;;
4206;SDS011;2117;47.972;7.830;2023-07-28T14:55:54;6.70;;;2.47;;
4206;SDS011;2117;47.972;7.830;2023-07-28T14:58:20;3.80;;;2.17;;
4206;SDS011;2117;47.972;7.830;2023-07-28T15:00:45;2.93;;;1.77;;
4206;SDS011;2117;47.972;7.830;2023-07-28T15:03:11;3.83;;;2.50;;
4206;SDS011;2117;47.972;7.830;2023-07-28T15:05:37;3.23;;;2.00;;
4206;SDS011;2117;47.972;7.830;2023-07-28T15:08:03;3.80;;;2.27;;
4206;SDS011;2117;47.972;7.830;2023-07-28T15:10:28;3.30;;;2.63;;
4206;SDS011;2117;47.972;7.830;2023-07-28T15:12:54;4.40;;;2.40;;
4206;SDS011;2117;47.972;7.830;2023-07-28T15:15:19;3.90;;;2.20;;
4206;SDS011;2117;47.972;7.830;2023-07-28T15:17:45;4.40;;;2.87;;
4206;SDS011;2117;47.972;7.830;2023-07-28T15:20:11;3.30;;;2.53;;
4206;SDS011;2117;47.972;7.830;2023-07-28T15:22:36;3.63;;;2.40;;
4206;SDS011;2117;47.972;7.830;2023-07-28T15:25:02;2.80;;;1.87;;
4206;SDS011;2117;47.972;7.830;2023-07-28T15:27:28;4.87;;;2.93;;
4206;SDS011;2117;47.972;7.830;2023-07-28T15:29:53;6.50;;;3.10;;
4206;SDS011;2117;47.972;7.830;2023-07-28T15:32:19;4.40;;;2.73;;
4206;SDS011;2117;47.972;7.830;2023-07-28T15:34:44;4.70;;;3.37;;
4206;SDS011;2117;47.972;7.830;2023-07-28T15:37:10;5.00;;;3.50;;
4206;SDS011;2117;47.972;7.830;2023-07-28T15:39:36;6.00;;;3.30;;
4206;SDS011;2117;47.972;7.830;2023-07-28T15:42:01;5.33;;;3.10;;
4206;SDS011;2117;47.972;7.830;2023-07-28T15:44:27;9.27;;;3.50;;
4206;SDS011;2117;47.972;7.830;2023-07-28T15:46:53;4.13;;;3.07;;
4206;SDS011;2117;47.972;7.830;2023-07-28T15:49:18;4.17;;;2.77;;
4206;SDS011;2117;47.972;7.830;2023-07-28T15:51:44;5.70;;;4.27;;
4206;SDS011;2117;47.972;7.830;2023-07-28T15:54:10;9.27;;;3.57;;
4206;SDS011;2117;47.972;7.830;2023-07-28T15:56:35;6.07;;;3.70;;
4206;SDS011;2117;47.972;7.830;2023-07-28T15:59:01;6.73;;;2.93;;
4206;SDS011;2117;47.972;7.830;2023-07-28T16:01:27;10.00;;;2.63;;
4206;SDS011;2117;47.972;7.830;2023-07-28T16:03:53;7.70;;;3.13;;
4206;SDS011;2117;47.972;7.830;2023-07-28T16:06:19;4.40;;;3.63;;
4206;SDS011;2117;47.972;7.830;2023-07-28T16:08:44;5.40;;;2.60;;
4206;SDS011;2117;47.972;7.830;2023-07-28T16:11:10;7.10;;;2.53;;
4206;SDS011;2117;47.972;7.830;2023-07-28T16:13:36;4.00;;;3.27;;
4206;SDS011;2117;47.972;7.830;2023-07-28T16:16:01;2.93;;;2.53;;
4206;SDS011;2117;47.972;7.830;2023-07-28T16:18:28;4.23;;;2.37;;
4206;SDS011;2117;47.972;7.830;2023-07-28T16:20:53;3.63;;;3.20;;
4206;SDS011;2117;47.972;7.830;2023-07-28T16:23:19;3.20;;;2.07;;